Time;durP1;ratioP1;P1;durP2;ratioP2;P2;SDS_P1;SDS_P2;PMS_P1;PMS_P2;Temp;Humidity;BMP_temperature;BMP_pressure;BME280_temperature;BME280_humidity;BME280_pressure;Samples;Min_cycle;Max_cycle;Signal;HPM_P1;HPM_P2
2021/08/03 00:00:09;;;;;;;6.90;5.37;;;;;;;30.41;46.80;100436.42;128524;1084;64211;-83
2021/08/03 00:02:36;;;;;;;7.17;5.20;;;;;;;30.41;46.34;100430.98;128479;1084;64153;-83
2021/08/03 00:05:02;;;;;;;7.07;5.10;;;;;;;30.42;46.30;100431.81;128482;1084;64144;-84
2021/08/03 00:07:29;;;;;;;7.10;5.20;;;;;;;30.42;46.95;100434.53;128483;1084;64227;-84
2021/08/03 00:10:18;;;;;;;6.67;5.40;;;;;;;30.41;46.48;100441.03;128558;1084;64108;-83
2021/08/03 00:12:54;;;;;;;7.13;5.47;;;;;;;30.40;46.30;100448.34;128484;1084;64173;-84
2021/08/03 00:15:21;;;;;;;5.93;5.07;;;;;;;30.41;46.83;100458.20;128491;1084;62813;-85
2021/08/03 00:17:57;;;;;;;6.87;5.27;;;;;;;30.41;46.93;100457.38;128555;1083;64134;-84
2021/08/03 00:20:26;;;;;;;7.57;5.77;;;;;;;30.41;46.73;100462.82;128449;1082;64096;-85
2021/08/03 00:23:00;;;;;;;6.70;5.53;;;;;;;30.41;46.85;100460.94;128491;1084;64157;-84
2021/08/03 00:25:26;;;;;;;6.70;5.33;;;;;;;30.41;46.93;100468.27;128519;1084;64131;-84
2021/08/03 00:27:53;;;;;;;6.83;5.20;;;;;;;30.41;46.70;100468.27;128491;1084;64198;-85
2021/08/03 00:30:19;;;;;;;6.50;5.33;;;;;;;30.40;46.59;100470.13;128503;1082;64066;-84
2021/08/03 00:32:48;;;;;;;6.87;5.20;;;;;;;30.40;46.40;100463.84;128489;1084;62241;-85
2021/08/03 00:35:14;;;;;;;;;;;;;;;30.39;47.00;100462.14;128569;1084;64301;-83
2021/08/03 00:37:40;;;;;;;6.03;5.00;;;;;;;30.38;46.56;100472.20;128500;1084;64195;-84
2021/08/03 00:40:07;;;;;;;7.20;5.20;;;;;;;30.39;46.67;100471.14;128888;1082;64307;-85
2021/08/03 00:42:36;;;;;;;6.70;4.70;;;;;;;30.38;46.90;100469.47;128470;1084;64147;-86
2021/08/03 00:45:06;;;;;;;7.33;5.60;;;;;;;30.39;46.52;100473.03;128478;1084;64136;-84
2021/08/03 00:47:41;;;;;;;;;;;;;;;30.38;47.06;100476.77;128575;1084;64282;-84
2021/08/03 00:50:12;;;;;;;7.67;5.90;;;;;;;30.37;47.06;100475.94;128912;1084;64153;-84
2021/08/03 00:52:40;;;;;;;7.93;5.37;;;;;;;30.37;46.87;100480.55;128534;1083;64205;-84
2021/08/03 00:55:07;;;;;;;6.83;5.35;;;;;;;30.38;46.42;100482.22;128541;1083;64172;-84
2021/08/03 00:58:02;;;;;;;9.20;5.63;;;;;;;30.37;47.05;100473.22;128502;1084;64102;-85
2021/08/03 01:00:28;;;;;;;6.93;5.23;;;;;;;30.36;46.58;100476.96;128895;1084;64152;-84
2021/08/03 01:02:54;;;;;;;6.50;5.20;;;;;;;30.37;46.77;100475.94;128452;1084;64265;-85
2021/08/03 01:05:20;;;;;;;6.87;5.17;;;;;;;30.38;46.64;100477.64;128422;1082;64723;-84
2021/08/03 01:08:07;;;;;;;8.17;5.30;;;;;;;30.37;46.83;100477.83;128917;1083;64157;-84
2021/08/03 01:11:00;;;;;;;6.87;5.00;;;;;;;30.38;46.95;100483.09;128358;1087;64160;-85
2021/08/03 01:13:38;;;;;;;6.77;5.23;;;;;;;30.38;47.16;100479.50;128368;1087;64122;-84
2021/08/03 01:16:37;;;;;;;6.55;5.23;;;;;;;30.38;46.77;100482.22;127910;1087;64131;-85
2021/08/03 01:19:21;;;;;;;;;;;;;;;30.36;46.71;100479.68;127940;1090;64147;-84
2021/08/03 01:22:32;;;;;;;6.10;4.73;;;;;;;30.36;47.15;100481.56;127941;1090;64153;-84
2021/08/03 01:25:16;;;;;;;6.60;5.20;;;;;;;30.36;47.21;100484.30;127724;1090;64141;-84
2021/08/03 01:28:08;;;;;;;7.23;5.10;;;;;;;30.36;47.22;100487.84;127925;1090;64109;-84
2021/08/03 01:30:36;;;;;;;6.53;5.10;;;;;;;30.37;46.61;100485.99;127698;1092;64153;-84
2021/08/03 01:33:04;;;;;;;7.30;5.10;;;;;;;30.37;47.17;100488.72;127345;1093;64233;-85
2021/08/03 01:35:30;;;;;;;6.97;5.10;;;;;;;30.37;47.01;100483.27;127684;1093;64138;-85
2021/08/03 01:37:59;;;;;;;6.37;4.67;;;;;;;30.37;47.07;100477.83;127689;1093;64414;-83
2021/08/03 01:40:26;;;;;;;5.53;4.90;;;;;;;30.37;47.21;100478.66;127710;1093;64224;-84
2021/08/03 01:42:55;;;;;;;6.17;4.80;;;;;;;30.37;47.07;100486.83;127697;1093;64157;-84
2021/08/03 01:45:22;;;;;;;6.37;5.20;;;;;;;30.37;47.07;100480.55;127401;1093;64231;-84
2021/08/03 01:47:49;;;;;;;6.03;4.63;;;;;;;30.37;46.87;100483.27;127449;1090;64143;-84
2021/08/03 01:50:16;;;;;;;7.07;4.80;;;;;;;30.37;46.72;100480.55;127835;1090;64738;-83
2021/08/03 01:52:43;;;;;;;6.63;5.10;;;;;;;30.37;47.14;100489.55;127930;1090;64044;-83
2021/08/03 01:55:09;;;;;;;6.63;5.13;;;;;;;30.37;47.20;100491.44;127759;1087;64188;-84
2021/08/03 01:57:37;;;;;;;6.60;5.30;;;;;;;30.37;47.15;100491.44;128370;1085;64208;-85
2021/08/03 02:00:07;;;;;;;7.07;5.43;;;;;;;30.37;47.22;100488.72;128400;1086;64156;-86
2021/08/03 02:02:36;;;;;;;6.83;5.13;;;;;;;30.36;46.95;100493.30;128036;1087;64254;-84
2021/08/03 02:05:02;;;;;;;7.33;4.80;;;;;;;30.36;47.20;100487.84;127967;1086;64179;-84
2021/08/03 02:07:29;;;;;;;6.70;4.93;;;;;;;30.37;46.83;100489.55;128056;1087;64138;-84
2021/08/03 02:09:55;;;;;;;6.00;4.90;;;;;;;30.36;47.26;100496.02;128508;1084;64180;-86
2021/08/03 02:12:22;;;;;;;6.47;5.00;;;;;;;30.37;46.90;100496.89;128472;1084;64181;-84
2021/08/03 02:14:49;;;;;;;6.67;5.10;;;;;;;30.37;47.01;100496.89;128468;1084;64096;-85
2021/08/03 02:17:17;;;;;;;7.47;5.40;;;;;;;30.37;46.86;100494.16;128499;1082;64224;-85
2021/08/03 02:19:45;;;;;;;6.83;5.30;;;;;;;30.36;46.83;100498.74;128521;1083;64153;-84
2021/08/03 02:22:11;;;;;;;6.90;5.53;;;;;;;30.36;46.91;100496.02;128471;1084;64153;-84
2021/08/03 02:24:38;;;;;;;7.53;5.40;;;;;;;30.36;46.80;100501.47;128439;1084;64145;-84
2021/08/03 02:27:05;;;;;;;6.50;5.00;;;;;;;30.36;47.16;100511.52;128482;1084;64128;-84
2021/08/03 02:29:31;;;;;;;6.67;5.03;;;;;;;30.37;47.40;100513.22;128373;1084;64251;-84
2021/08/03 02:32:12;;;;;;;6.83;4.83;;;;;;;30.36;46.90;100514.24;128383;1082;64106;-83
2021/08/03 02:34:44;;;;;;;6.80;5.00;;;;;;;30.37;46.88;100513.22;128730;1082;64137;-85
2021/08/03 02:37:12;;;;;;;7.30;4.67;;;;;;;30.36;47.40;100519.69;128531;1084;64355;-83
2021/08/03 02:39:38;;;;;;;5.73;4.57;;;;;;;30.37;47.15;100524.95;128535;1084;64142;-83
2021/08/03 02:42:06;;;;;;;6.00;5.03;;;;;;;30.36;47.50;100533.30;128445;1084;65166;-85
2021/08/03 02:44:33;;;;;;;6.33;4.70;;;;;;;30.36;47.26;100534.14;128487;1084;64141;-85
2021/08/03 02:47:02;;;;;;;6.73;5.17;;;;;;;30.36;46.96;100536.03;128467;1084;64131;-84
2021/08/03 02:49:35;;;;;;;6.47;4.90;;;;;;;30.35;47.30;100551.50;128904;1084;64211;-84
2021/08/03 02:52:04;;;;;;;6.13;5.00;;;;;;;30.35;46.91;100556.95;128538;1084;63974;-85
2021/08/03 02:54:36;;;;;;;6.10;4.70;;;;;;;30.35;46.87;100553.39;128475;1082;64361;-84
2021/08/03 02:57:04;;;;;;;7.30;5.17;;;;;;;30.36;46.85;100563.26;128539;1084;64555;-84
2021/08/03 02:59:33;;;;;;;7.30;5.13;;;;;;;30.35;47.40;100559.67;128517;1084;64012;-84
2021/08/03 03:02:00;;;;;;;7.23;5.20;;;;;;;30.35;46.79;100559.67;128929;1084;64163;-84
2021/08/03 03:05:09;;;;;;;5.70;4.70;;;;;;;30.34;46.78;100557.99;128477;1084;64920;-85
2021/08/03 03:07:44;;;;;;;7.27;5.30;;;;;;;30.35;47.30;100572.45;128028;1087;64127;-84
2021/08/03 03:10:25;;;;;;;7.40;5.50;;;;;;;30.33;46.84;100575.34;128012;1085;64102;-85
2021/08/03 03:12:57;;;;;;;8.30;5.13;;;;;;;30.33;47.24;100578.08;128275;1087;64122;-85
2021/08/03 03:15:24;;;;;;;8.97;5.57;;;;;;;30.34;47.32;100576.19;128350;1087;64144;-84
2021/08/03 03:17:52;;;;;;;8.60;5.17;;;;;;;30.34;46.93;100582.50;128020;1087;64200;-84
2021/08/03 03:20:19;;;;;;;7.10;4.73;;;;;;;30.34;47.12;100587.95;128062;1086;64138;-84
2021/08/03 03:22:49;;;;;;;5.83;4.57;;;;;;;30.34;46.66;100578.91;127986;1087;64102;-85
2021/08/03 03:25:24;;;;;;;6.37;4.90;;;;;;;30.33;46.91;100591.69;127980;1086;64131;-84
2021/08/03 03:27:53;;;;;;;6.57;4.87;;;;;;;30.34;47.06;100595.25;128314;1087;64296;-84
2021/08/03 03:30:20;;;;;;;7.80;5.00;;;;;;;30.34;46.48;100592.52;128004;1087;63987;-84
2021/08/03 03:32:46;;;;;;;7.50;5.30;;;;;;;30.33;46.88;100607.16;128386;1087;64354;-85
2021/08/03 03:35:14;;;;;;;8.57;5.10;;;;;;;30.33;46.87;100602.58;128007;1087;64251;-84
2021/08/03 03:37:40;;;;;;;6.50;5.13;;;;;;;30.34;46.69;100617.03;127972;1085;64160;-84
2021/08/03 03:40:08;;;;;;;7.73;4.97;;;;;;;30.33;46.67;100620.77;127998;1087;64597;-84
2021/08/03 03:42:42;;;;;;;7.60;4.77;;;;;;;30.33;46.87;100626.22;128001;1085;64159;-86
2021/08/03 03:45:08;;;;;;;6.03;4.80;;;;;;;30.33;46.69;100628.94;128221;1084;64123;-84
2021/08/03 03:47:37;;;;;;;7.43;4.90;;;;;;;30.33;46.67;100635.25;128461;1083;64358;-84
2021/08/03 03:50:12;;;;;;;7.70;5.13;;;;;;;30.33;46.99;100628.94;128549;1084;64099;-83
2021/08/03 03:52:50;;;;;;;9.30;5.00;;;;;;;30.33;46.53;100627.09;128491;1084;64148;-85
2021/08/03 03:55:18;;;;;;;7.00;5.10;;;;;;;30.32;46.96;100632.71;128456;1084;64728;-84
2021/08/03 03:57:45;;;;;;;6.00;4.93;;;;;;;30.32;46.99;100628.10;128478;1084;64117;-84
2021/08/03 04:00:13;;;;;;;5.73;4.73;;;;;;;30.32;46.54;100643.60;128509;1084;64321;-85
2021/08/03 04:02:41;;;;;;;7.60;4.93;;;;;;;30.32;46.50;100636.27;128491;1084;64201;-84
2021/08/03 04:05:10;;;;;;;8.07;5.27;;;;;;;30.32;46.77;100649.05;128453;1084;64102;-84
2021/08/03 04:07:39;;;;;;;9.50;5.00;;;;;;;30.32;46.39;100658.05;128496;1084;64125;-84
2021/08/03 04:10:08;;;;;;;8.70;5.13;;;;;;;30.32;46.72;100663.50;128541;1082;64149;-85
2021/08/03 04:12:37;;;;;;;7.70;4.80;;;;;;;30.30;46.90;100668.29;128524;1084;64285;-84
2021/08/03 04:15:04;;;;;;;7.30;5.30;;;;;;;30.31;46.77;100683.58;128493;1083;63948;-84
2021/08/03 04:17:30;;;;;;;7.93;4.97;;;;;;;30.31;46.65;100696.36;128897;1083;64117;-85
2021/08/03 04:19:57;;;;;;;8.00;5.03;;;;;;;30.31;46.60;100709.97;128539;1084;64192;-84
2021/08/03 04:22:26;;;;;;;6.97;4.90;;;;;;;30.30;46.59;100703.69;128446;1084;64205;-84
2021/08/03 04:24:53;;;;;;;6.27;5.10;;;;;;;30.30;46.25;100710.98;128468;1084;64164;-84
2021/08/03 04:27:19;;;;;;;7.43;5.13;;;;;;;30.30;46.69;100719.16;128495;1084;64227;-84
2021/08/03 04:29:47;;;;;;;;;;;;;;;30.29;46.54;100721.03;128542;1084;64128;-84
2021/08/03 04:32:13;;;;;;;7.00;4.87;;;;;;;30.28;46.45;100715.77;128516;1082;64314;-84
2021/08/03 04:34:40;;;;;;;8.17;5.10;;;;;;;30.28;46.54;100713.88;128497;1083;64207;-84
2021/08/03 04:37:07;;;;;;;7.97;4.80;;;;;;;30.28;46.61;100719.33;128425;1084;64481;-84
2021/08/03 04:39:37;;;;;;;7.37;5.30;;;;;;;30.28;46.47;100726.66;128512;1084;64142;-84
2021/08/03 04:42:03;;;;;;;7.33;5.07;;;;;;;30.28;46.06;100721.22;128905;1083;64089;-84
2021/08/03 04:44:30;;;;;;;7.43;5.03;;;;;;;30.29;46.44;100725.61;128434;1084;64281;-84
2021/08/03 04:46:57;;;;;;;10.60;5.30;;;;;;;30.29;46.01;100722.89;128908;1084;64131;-84
2021/08/03 04:49:26;;;;;;;8.67;4.93;;;;;;;30.29;46.21;100720.17;128417;1084;64243;-85
2021/08/03 04:51:52;;;;;;;8.97;4.70;;;;;;;30.28;45.94;100719.33;128455;1084;64156;-84
2021/08/03 04:54:18;;;;;;;15.80;5.07;;;;;;;30.28;46.15;100715.77;128465;1084;64128;-83
2021/08/03 04:56:45;;;;;;;16.63;5.10;;;;;;;30.26;45.97;100711.34;128922;1082;64202;-83
2021/08/03 04:59:20;;;;;;;11.63;4.77;;;;;;;30.27;45.51;100709.45;128487;1083;64135;-84
2021/08/03 05:01:48;;;;;;;8.07;5.00;;;;;;;30.28;45.80;100707.60;128903;1084;64294;-84
2021/08/03 05:04:18;;;;;;;12.10;4.95;;;;;;;30.28;45.90;100721.22;128465;1084;64131;-84
2021/08/03 05:06:44;;;;;;;10.23;4.97;;;;;;;30.26;45.46;100724.09;128896;1083;62298;-83
2021/08/03 05:09:12;;;;;;;8.97;4.87;;;;;;;30.26;45.48;100722.23;128523;1083;64278;-85
2021/08/03 05:11:38;;;;;;;9.50;4.97;;;;;;;30.26;45.33;100724.09;128496;1084;64233;-83
2021/08/03 05:14:05;;;;;;;8.47;4.90;;;;;;;30.26;45.68;100737.70;128442;1084;64189;-84
2021/08/03 05:16:32;;;;;;;6.20;4.30;;;;;;;30.25;45.60;100742.30;128498;1084;64128;-84
2021/08/03 05:18:58;;;;;;;7.73;4.80;;;;;;;30.26;45.28;100745.87;128523;1084;64069;-84
2021/08/03 05:21:24;;;;;;;11.33;4.93;;;;;;;30.25;45.77;100747.75;128867;1084;64128;-84
2021/08/03 05:23:50;;;;;;;8.77;4.70;;;;;;;30.26;45.62;100748.59;128898;1084;64198;-87
2021/08/03 05:26:20;;;;;;;7.73;4.40;;;;;;;30.25;45.61;100750.47;128507;1084;64133;-87
2021/08/03 05:28:46;;;;;;;7.43;4.03;;;;;;;30.26;45.38;100762.20;128520;1084;64105;-86
2021/08/03 05:31:15;;;;;;;7.37;4.53;;;;;;;30.25;45.21;100763.25;128492;1084;64136;-86
2021/08/03 05:33:41;;;;;;;9.55;5.23;;;;;;;30.27;45.53;100766.63;128922;1084;64144;-86
2021/08/03 05:36:08;;;;;;;7.63;4.27;;;;;;;30.26;45.51;100763.08;128468;1082;64214;-85
2021/08/03 05:38:35;;;;;;;6.87;4.60;;;;;;;30.28;45.41;100759.34;128867;1082;64099;-84
2021/08/03 05:41:01;;;;;;;7.00;4.73;;;;;;;30.29;45.22;100766.45;128414;1082;64594;-85
2021/08/03 05:43:27;;;;;;;6.20;4.35;;;;;;;30.29;44.88;100766.45;128433;1084;64099;-85
2021/08/03 05:45:53;;;;;;;6.53;4.47;;;;;;;30.31;45.15;100762.54;128414;1084;64134;-85
2021/08/03 05:48:19;;;;;;;7.33;4.50;;;;;;;30.31;45.21;100762.54;128420;1084;64263;-85
2021/08/03 05:50:46;;;;;;;7.50;4.10;;;;;;;30.32;45.21;100761.52;128407;1084;64229;-86
2021/08/03 05:53:17;;;;;;;7.80;4.40;;;;;;;30.33;45.01;100768.68;128403;1084;64288;-85
2021/08/03 05:55:43;;;;;;;6.90;4.20;;;;;;;30.34;44.59;100769.52;128416;1084;64942;-85
2021/08/03 05:58:10;;;;;;;7.70;4.40;;;;;;;30.35;44.46;100773.95;128444;1083;64179;-85
2021/08/03 06:00:38;;;;;;;7.57;4.13;;;;;;;30.35;44.88;100777.52;128402;1084;64131;-85
2021/08/03 06:03:04;;;;;;;8.53;5.27;;;;;;;30.35;44.54;100776.67;128391;1083;64136;-86
2021/08/03 06:05:31;;;;;;;9.07;4.30;;;;;;;30.36;44.57;100772.94;128826;1084;64099;-86
2021/08/03 06:07:59;;;;;;;8.50;4.00;;;;;;;30.36;44.79;100779.22;128408;1084;64181;-87
2021/08/03 06:10:27;;;;;;;6.55;3.93;;;;;;;30.38;44.25;100781.77;128382;1083;64133;-84
2021/08/03 06:12:55;;;;;;;6.43;3.83;;;;;;;30.38;44.32;100785.36;128624;1082;64118;-84
2021/08/03 06:15:22;;;;;;;8.03;3.87;;;;;;;30.39;44.67;100784.31;129512;1084;61708;-85
2021/08/03 06:18:04;;;;;;;7.47;4.03;;;;;;;30.41;44.13;100781.44;128979;1084;64217;-84
2021/08/03 06:20:30;;;;;;;6.53;3.67;;;;;;;30.42;44.45;100783.12;128818;1083;64174;-86
2021/08/03 06:22:57;;;;;;;7.00;3.73;;;;;;;30.44;44.06;100789.26;128871;1084;64284;-86
2021/08/03 06:25:24;;;;;;;7.80;3.90;;;;;;;30.46;44.05;100791.84;128409;1084;64125;-86
2021/08/03 06:27:50;;;;;;;6.67;3.80;;;;;;;30.46;44.04;100792.67;128419;1084;64131;-86
2021/08/03 06:30:16;;;;;;;7.10;3.70;;;;;;;30.46;43.81;100789.95;128440;1083;64331;-85
2021/08/03 06:32:42;;;;;;;6.30;3.40;;;;;;;30.48;43.77;100792.53;128369;1084;64205;-84
2021/08/03 06:35:10;;;;;;;7.30;3.57;;;;;;;30.47;43.87;100799.83;128474;1084;64266;-87
2021/08/03 06:37:37;;;;;;;5.18;3.68;;;;;;;30.48;43.46;100804.27;128531;1084;64016;-87
2021/08/03 06:40:04;;;;;;;5.90;3.97;;;;;;;30.48;43.92;100800.70;128468;1084;64153;-87
2021/08/03 06:42:59;;;;;;;4.87;3.50;;;;;;;30.48;43.47;100795.25;128840;1084;64092;-86
2021/08/03 06:45:29;;;;;;;5.73;3.60;;;;;;;30.48;43.82;100806.15;128337;1087;64532;-87
2021/08/03 06:48:10;;;;;;;5.90;3.50;;;;;;;30.49;43.79;100813.27;128064;1086;64138;-87
2021/08/03 06:50:45;;;;;;;6.87;3.37;;;;;;;30.48;43.78;100809.71;128310;1087;64003;-86
2021/08/03 06:53:11;;;;;;;7.10;3.83;;;;;;;30.48;43.69;100812.44;127994;1087;64169;-87
2021/08/03 06:55:42;;;;;;;8.93;3.60;;;;;;;30.48;43.66;100804.27;127975;1087;64153;-86
2021/08/03 06:58:16;;;;;;;6.97;3.73;;;;;;;30.48;43.01;100817.88;127941;1087;64381;-86
2021/08/03 07:00:42;;;;;;;5.97;3.63;;;;;;;30.49;43.45;100816.00;127945;1087;64312;-86
2021/08/03 07:03:09;;;;;;;7.30;3.47;;;;;;;30.49;43.52;100821.44;128011;1085;64163;-86
2021/08/03 07:05:38;;;;;;;6.47;3.30;;;;;;;30.48;42.95;100819.77;128057;1087;64195;-88
2021/08/03 07:08:04;;;;;;;8.37;3.60;;;;;;;30.48;43.17;100819.77;128081;1087;64211;-84
2021/08/03 07:10:30;;;;;;;6.57;3.30;;;;;;;30.48;43.30;100819.77;128497;1085;64143;-85
2021/08/03 07:12:57;;;;;;;9.23;3.47;;;;;;;30.48;42.88;100815.16;128194;1085;64336;-85
2021/08/03 07:15:27;;;;;;;5.43;3.20;;;;;;;30.49;43.35;100822.31;128288;1087;64159;-85
2021/08/03 07:17:54;;;;;;;7.20;3.30;;;;;;;30.49;43.09;100822.31;128032;1087;64103;-85
2021/08/03 07:20:23;;;;;;;9.33;3.50;;;;;;;30.49;42.94;100827.76;127993;1086;64099;-86
2021/08/03 07:22:49;;;;;;;5.33;3.20;;;;;;;30.50;42.96;100828.59;128399;1084;64126;-84
2021/08/03 07:25:16;;;;;;;6.27;3.13;;;;;;;30.48;43.01;100834.22;128441;1082;64425;-85
2021/08/03 07:27:43;;;;;;;6.03;3.07;;;;;;;30.50;43.12;100820.42;128416;1082;64154;-85
2021/08/03 07:30:10;;;;;;;6.83;3.43;;;;;;;30.50;43.09;100828.59;128367;1083;64253;-85
2021/08/03 07:32:37;;;;;;;6.85;3.55;;;;;;;30.49;42.57;100826.89;128440;1084;64191;-86
2021/08/03 07:35:05;;;;;;;7.53;3.00;;;;;;;30.49;43.10;100825.04;128400;1084;64345;-85
2021/08/03 07:37:31;;;;;;;7.17;3.37;;;;;;;30.49;42.52;100837.78;128403;1084;64126;-85
2021/08/03 07:39:59;;;;;;;7.90;3.30;;;;;;;30.49;42.47;100832.34;128360;1082;64140;-86
2021/08/03 07:42:25;;;;;;;5.10;3.47;;;;;;;30.49;42.70;100837.78;128797;1084;64165;-85
2021/08/03 07:44:52;;;;;;;6.93;3.40;;;;;;;30.49;42.86;100829.61;128452;1083;64209;-86
2021/08/03 07:47:18;;;;;;;5.23;3.13;;;;;;;30.49;42.95;100840.51;128467;1083;64245;-85
2021/08/03 07:49:46;;;;;;;7.13;3.20;;;;;;;30.50;42.41;100839.50;128405;1082;64137;-85
2021/08/03 07:52:12;;;;;;;;;;;;;;;30.48;42.88;100841.55;128443;1084;64186;-85
2021/08/03 07:54:39;;;;;;;6.00;3.17;;;;;;;30.48;42.48;100849.73;128402;1082;64176;-85
2021/08/03 07:57:06;;;;;;;5.50;3.20;;;;;;;30.48;42.73;100852.45;128828;1084;64205;-85
2021/08/03 07:59:32;;;;;;;6.53;3.50;;;;;;;30.49;42.36;100851.41;128433;1084;64837;-85
2021/08/03 08:01:58;;;;;;;5.50;3.03;;;;;;;30.48;42.73;100847.84;128478;1084;64272;-87
2021/08/03 08:04:27;;;;;;;8.80;3.07;;;;;;;30.48;42.17;100850.56;128877;1084;64303;-86
2021/08/03 08:06:54;;;;;;;7.37;3.30;;;;;;;30.47;42.09;100846.13;128420;1083;64016;-86
2021/08/03 08:09:22;;;;;;;6.90;3.30;;;;;;;30.48;42.17;100847.84;128810;1082;64363;-85
2021/08/03 08:11:48;;;;;;;6.05;3.18;;;;;;;30.48;42.06;100844.28;128478;1084;64107;-86
2021/08/03 08:14:15;;;;;;;7.03;2.97;;;;;;;30.48;42.11;100844.28;128382;1084;64099;-86
2021/08/03 08:16:41;;;;;;;6.07;3.00;;;;;;;30.49;41.96;100848.68;128430;1084;64605;-81
2021/08/03 08:19:07;;;;;;;6.17;3.20;;;;;;;30.48;41.97;100845.12;128461;1083;64237;-85
2021/08/03 08:21:36;;;;;;;6.90;3.30;;;;;;;30.47;42.48;100843.41;128432;1084;64150;-84
2021/08/03 08:24:02;;;;;;;6.63;3.15;;;;;;;30.48;42.19;100845.12;128432;1084;64204;-85
2021/08/03 08:26:29;;;;;;;6.43;3.20;;;;;;;30.48;42.32;100844.28;128425;1084;64121;-85
2021/08/03 08:28:56;;;;;;;6.23;3.20;;;;;;;30.48;41.99;100841.55;128389;1084;64246;-84
2021/08/03 08:31:22;;;;;;;6.43;3.07;;;;;;;30.49;42.32;100843.23;128400;1083;64179;-85
2021/08/03 08:33:48;;;;;;;5.73;3.10;;;;;;;30.48;42.04;100850.56;128807;1084;64152;-84
2021/08/03 08:36:14;;;;;;;6.60;3.00;;;;;;;30.48;42.11;100842.39;128462;1082;64205;-85
2021/08/03 08:38:41;;;;;;;6.87;3.40;;;;;;;30.49;41.89;100844.10;128433;1084;64146;-85
2021/08/03 08:41:09;;;;;;;6.63;3.13;;;;;;;30.49;42.13;100838.66;128386;1084;64099;-86
2021/08/03 08:43:36;;;;;;;5.60;3.40;;;;;;;30.49;41.91;100844.10;128429;1084;64184;-86
2021/08/03 08:46:02;;;;;;;7.23;3.40;;;;;;;30.50;41.79;100850.39;128421;1082;64349;-86
2021/08/03 08:48:28;;;;;;;6.53;3.40;;;;;;;30.49;42.14;100841.38;128433;1083;64228;-85
2021/08/03 08:50:54;;;;;;;7.50;2.87;;;;;;;30.50;42.00;100831.33;128811;1084;64193;-84
2021/08/03 08:53:24;;;;;;;5.47;3.10;;;;;;;30.49;42.02;100841.38;128408;1081;62737;-85
2021/08/03 08:55:51;;;;;;;6.50;3.20;;;;;;;30.49;41.93;100838.66;128947;1084;63935;-85
2021/08/03 08:58:17;;;;;;;5.83;3.27;;;;;;;30.51;41.53;100835.75;128376;1084;64105;-85
2021/08/03 09:00:43;;;;;;;5.53;2.70;;;;;;;30.50;41.76;100843.09;128419;1084;64134;-87
2021/08/03 09:03:10;;;;;;;6.47;3.20;;;;;;;30.50;41.44;100840.37;128454;1082;64177;-86
2021/08/03 09:05:41;;;;;;;5.80;3.07;;;;;;;30.50;41.35;100832.20;128503;1084;64597;-85
2021/08/03 09:08:09;;;;;;;6.60;3.10;;;;;;;30.50;41.42;100824.02;128397;1084;64073;-85
2021/08/03 09:10:45;;;;;;;6.00;3.13;;;;;;;30.50;41.66;100818.58;128852;1084;64150;-85
2021/08/03 09:13:21;;;;;;;6.37;3.63;;;;;;;30.50;41.63;100821.30;128872;1084;64562;-87
2021/08/03 09:15:59;;;;;;;6.43;3.37;;;;;;;30.50;41.56;100828.59;128477;1084;65292;-85
2021/08/03 09:18:57;;;;;;;6.43;3.10;;;;;;;30.50;41.18;100837.64;128475;1083;64134;-85
2021/08/03 09:21:24;;;;;;;;;;;;;;;30.49;41.65;100837.78;128249;1087;62585;-86
2021/08/03 09:23:55;;;;;;;7.30;3.30;;;;;;;30.48;41.52;100841.55;127870;1087;63419;-86
2021/08/03 09:26:42;;;;;;;5.30;3.40;;;;;;;30.49;41.39;100849.55;127940;1086;64250;-86
2021/08/03 09:29:10;;;;;;;6.37;3.23;;;;;;;30.49;41.09;100846.83;128214;1085;64201;-86
2021/08/03 09:31:37;;;;;;;6.78;3.45;;;;;;;30.49;41.52;100846.83;127822;1087;64099;-85
2021/08/03 09:34:11;;;;;;;5.73;3.20;;;;;;;30.50;41.43;100845.81;127952;1084;64220;-86
2021/08/03 09:36:54;;;;;;;4.67;3.40;;;;;;;30.51;41.32;100846.66;127969;1087;64102;-86
2021/08/03 09:39:45;;;;;;;6.00;3.20;;;;;;;30.51;41.42;100842.05;128329;1087;64106;-86
2021/08/03 09:42:18;;;;;;;7.30;3.40;;;;;;;30.52;41.00;100845.63;128278;1086;64275;-83
2021/08/03 09:45:00;;;;;;;7.17;3.13;;;;;;;30.52;40.83;100832.02;128385;1086;64252;-86
2021/08/03 09:47:28;;;;;;;8.10;3.60;;;;;;;30.54;40.79;100840.84;128763;1086;64142;-83
2021/08/03 09:49:56;;;;;;;6.53;3.73;;;;;;;30.55;41.01;100834.39;128489;1083;63330;-85
2021/08/03 09:52:24;;;;;;;6.10;3.50;;;;;;;30.55;41.23;100834.39;127974;1087;64134;-84
2021/08/03 09:55:15;;;;;;;6.15;3.20;;;;;;;30.54;40.71;100822.66;128360;1087;64135;-84
2021/08/03 09:57:42;;;;;;;5.80;3.20;;;;;;;30.55;40.86;100834.39;128062;1084;64204;-83
2021/08/03 10:00:27;;;;;;;5.27;3.10;;;;;;;30.56;41.18;100830.64;128636;1084;64316;-84
2021/08/03 10:02:54;;;;;;;5.23;3.27;;;;;;;30.56;40.80;100836.94;129093;1084;64142;-84
2021/08/03 10:05:22;;;;;;;4.63;3.50;;;;;;;30.55;41.07;100829.78;128383;1084;64122;-84
2021/08/03 10:07:49;;;;;;;5.33;3.20;;;;;;;30.55;40.68;100823.48;128445;1084;64284;-85
2021/08/03 10:10:15;;;;;;;6.03;3.40;;;;;;;30.55;40.83;100829.78;128414;1083;64313;-85
2021/08/03 10:12:49;;;;;;;4.67;3.20;;;;;;;30.55;40.56;100820.77;128412;1084;64279;-85
2021/08/03 10:15:41;;;;;;;4.93;3.40;;;;;;;30.54;40.94;100828.10;128810;1084;64421;-86
2021/08/03 10:18:08;;;;;;;5.40;2.93;;;;;;;30.53;40.86;100818.22;128280;1087;64437;-85
2021/08/03 10:20:41;;;;;;;5.80;3.40;;;;;;;30.53;40.93;100820.08;127913;1087;64326;-85
2021/08/03 10:23:07;;;;;;;7.70;3.40;;;;;;;30.53;40.19;100825.52;127900;1084;64252;-85
2021/08/03 10:25:40;;;;;;;4.67;3.30;;;;;;;30.53;40.81;100817.34;127932;1087;64140;-85
2021/08/03 10:28:25;;;;;;;5.63;3.10;;;;;;;30.52;40.39;100819.23;127962;1087;64160;-84
2021/08/03 10:30:52;;;;;;;8.33;3.33;;;;;;;30.51;40.45;100803.91;127918;1087;64118;-84
2021/08/03 10:33:43;;;;;;;5.67;3.30;;;;;;;30.52;40.53;100796.61;127929;1085;64221;-86
2021/08/03 10:36:10;;;;;;;4.97;3.20;;;;;;;30.51;40.28;100795.73;128241;1087;64301;-84
2021/08/03 10:38:37;;;;;;;6.23;3.20;;;;;;;30.52;40.24;100792.00;127945;1085;64311;-84
2021/08/03 10:41:16;;;;;;;6.15;3.20;;;;;;;30.52;40.30;100785.71;127948;1087;64163;-84
2021/08/03 10:43:48;;;;;;;6.67;3.57;;;;;;;30.52;40.38;100782.98;127920;1085;64138;-84
2021/08/03 10:46:35;;;;;;;5.10;3.30;;;;;;;30.51;40.14;100776.67;127981;1086;64147;-85
2021/08/03 10:49:02;;;;;;;5.57;3.47;;;;;;;30.53;40.24;100781.94;127830;1088;64119;-84
2021/08/03 10:51:30;;;;;;;5.03;3.30;;;;;;;30.52;40.21;100781.10;127619;1090;64266;-84
2021/08/03 10:54:13;;;;;;;4.98;3.30;;;;;;;30.53;40.29;100784.66;127881;1090;64144;-86
2021/08/03 10:57:03;;;;;;;6.60;3.17;;;;;;;30.53;40.20;100782.81;128022;1087;64278;-87
2021/08/03 10:59:37;;;;;;;6.90;3.77;;;;;;;30.53;40.06;100776.48;128289;1086;63971;-85
2021/08/03 11:02:04;;;;;;;5.40;3.37;;;;;;;30.52;40.48;100770.20;127947;1086;64285;-86
2021/08/03 11:04:42;;;;;;;4.73;3.23;;;;;;;30.53;40.12;100757.42;128029;1087;64234;-84
2021/08/03 11:07:27;;;;;;;;;;;;;;;30.52;40.53;100756.59;128284;1085;64278;-84
2021/08/03 11:10:14;;;;;;;7.23;3.53;;;;;;;30.51;40.45;100757.60;128265;1087;64095;-85
2021/08/03 11:12:46;;;;;;;4.93;3.10;;;;;;;30.52;40.49;100750.30;128277;1085;64105;-85
2021/08/03 11:15:21;;;;;;;5.07;3.33;;;;;;;30.53;40.04;100751.98;128030;1087;64144;-85
2021/08/03 11:17:58;;;;;;;5.03;3.17;;;;;;;30.53;40.52;100739.23;128237;1087;64137;-85
2021/08/03 11:20:58;;;;;;;5.03;3.30;;;;;;;30.53;40.50;100739.23;128009;1086;62417;-85
2021/08/03 11:23:24;;;;;;;5.80;3.10;;;;;;;30.54;40.45;100740.06;128274;1086;64285;-85
2021/08/03 11:25:50;;;;;;;4.87;3.10;;;;;;;30.54;40.47;100746.38;128087;1084;64147;-85
2021/08/03 11:28:18;;;;;;;5.37;3.10;;;;;;;30.54;40.15;100743.66;128913;1084;62133;-85
2021/08/03 11:30:46;;;;;;;7.30;3.30;;;;;;;30.56;40.63;100748.92;129132;1084;63540;-85
2021/08/03 11:33:14;;;;;;;5.43;3.30;;;;;;;30.57;40.02;100753.36;129220;1084;64157;-85